首页
METAR-TAF:

METAR-TAF

机场 :

多倫多皮爾遜國際機場

多伦多, 安大略省, 加拿大

纬度: 43-40N, 经度: 079-38W, 海拔: 173米

当前天气观测

该预报发布于51分钟前的20:00 UTC
风速8节,风向东南
温度 2°C
湿度 51%
气压 1019 hPa
能見度: 24.1公里
多云层高于26000英尺

METAR: CYYZ 172000Z 13008KT 15SM BKN260 02/M07 A3008 RMK CI6 SLP196

时间: 15:51 (20:51 UTC)

预报

该预报发布于13分钟前的20:38 UTC
预报有效从17日的 21点(UTC)到 18日的 24点(UTC)
风速8节,风向东转东南
能見度: 10公里
散云层高于24000英尺
成为
从 17日的 22点(UTC)到 17日的 24点(UTC)
风速6节,风向东北
从 18日的 0100点(UTC)
风速8节,风向北转东北
能見度: 10公里
散云层高于20000英尺
从 18日的 0800点(UTC)
风速8节,风向
能見度: 10公里
多云层高于15000英尺
从 18日的 1100点(UTC)
风速6节,风向东转东北
能見度: 8.0公里
多云层高于1500英尺
阴天层高于3000英尺
小雪, (小) 冻, 毛毛雨, 轻雾
几率 30%
从 18日的 11点(UTC)到 18日的 13点(UTC)
能見度: 8.0公里
(小) 冻, 雨, 轻雾
从 18日的 1300点(UTC)
风速8节,风向北转东北
多云层高于1500英尺
阴天层高于3000英尺
小雪
从 18日的 1600点(UTC)
风速10节,风向东北
能見度: 6.4公里
多云层高于2000英尺
阴天层高于4000英尺
小雪, 雨, 轻雾
几率 30%
从 18日的 16点(UTC)到 18日的 22点(UTC)
能見度: 1.6公里
小雪
从 18日的 2200点(UTC)
风速8节,风向北转东北
能見度: 3.2公里
阴天层高于1000英尺
小雪

TAF: CYYZ 172038Z 1721/1824 11008KT P6SM SCT240 BECMG 1722/1724 04006KT FM180100 02008KT P6SM SCT200 FM180800 01008KT P6SM BKN150 FM181100 06006KT 5SM -SN -FZDZ BR BKN015 OVC030 PROB30 1811/1813 5SM -FZRA BR FM181300 03008KT 11/2SM -SN BKN015 OVC030 FM181600 04010KT 4SM -SNRA BR BKN020 OVC040 PROB30 1816/1822 1SM -SN FM182200 03008KT 2SM -SN OVC010 RMK NXT FCST BY 180000Z

超过4000个机场的气象观测和天气预报(METAR&TAF报告)。

可查询的气象台以黄色和红色小点在地图上表示。

将鼠标移到小点上方,可查看气象台名称。

然后点击查看天气观测和预报。

如需切换地图:点击带黑十字的绿色按钮放大地图;点击带横线的绿色按钮缩小地图;或者点击绿色箭头查看邻近地区的地图。


METAR-TAF: